createdAt,value
2023-05-14T00:01:42.623Z,13.30
2023-05-14T00:05:10.794Z,13.29
2023-05-14T00:08:39.169Z,13.28
2023-05-14T00:12:07.315Z,13.30
2023-05-14T00:15:35.304Z,13.30
2023-05-14T00:19:03.218Z,13.32
2023-05-14T00:22:14.950Z,13.35
2023-05-14T00:25:43.011Z,13.38
2023-05-14T00:28:32.042Z,13.40
2023-05-14T00:32:00.117Z,13.39
2023-05-14T00:35:28.514Z,13.39
2023-05-14T00:38:56.425Z,13.40
2023-05-14T00:42:24.355Z,13.40
2023-05-14T00:45:52.522Z,13.39
2023-05-14T00:49:20.758Z,13.39
2023-05-14T00:52:29.471Z,13.39
2023-05-14T00:55:57.439Z,13.39
2023-05-14T00:59:25.366Z,13.40
2023-05-14T01:02:53.459Z,13.41
2023-05-14T01:06:21.976Z,13.41
2023-05-14T01:09:49.919Z,13.42
2023-05-14T01:12:53.291Z,13.41
2023-05-14T01:16:05.454Z,13.39
2023-05-14T01:19:33.583Z,13.37
2023-05-14T01:22:45.873Z,13.40
2023-05-14T01:26:14.019Z,13.41
2023-05-14T01:29:42.196Z,13.40
2023-05-14T01:33:10.434Z,13.42
2023-05-14T01:36:38.479Z,13.42
2023-05-14T01:40:06.687Z,13.41
2023-05-14T01:43:34.595Z,13.41
2023-05-14T01:47:02.350Z,13.40
2023-05-14T01:50:30.320Z,13.42
2023-05-14T01:53:58.412Z,13.44
2023-05-14T01:57:27.739Z,13.42
2023-05-14T02:00:35.710Z,13.42
2023-05-14T02:04:03.620Z,13.41
2023-05-14T02:07:31.713Z,13.40
2023-05-14T02:10:59.605Z,13.39
2023-05-14T02:14:28.230Z,13.40
2023-05-14T02:17:56.104Z,13.41
2023-05-14T02:21:24.033Z,13.41
2023-05-14T02:24:52.699Z,13.39
2023-05-14T02:28:20.710Z,13.37
2023-05-14T02:31:48.632Z,13.33
2023-05-14T02:35:16.577Z,13.30
2023-05-14T02:38:44.336Z,13.28
2023-05-14T02:41:52.437Z,13.19
2023-05-14T02:45:20.770Z,13.15
2023-05-14T02:48:49.019Z,13.09
2023-05-14T02:52:18.144Z,13.06
2023-05-14T02:55:28.004Z,13.05
2023-05-14T02:58:55.881Z,13.04
2023-05-14T03:02:05.173Z,13.03
2023-05-14T03:05:33.009Z,13.02
2023-05-14T03:08:41.051Z,13.02
2023-05-14T03:12:09.022Z,12.99
2023-05-14T03:15:36.978Z,12.96
2023-05-14T03:19:05.228Z,12.92
2023-05-14T03:22:33.107Z,12.91
2023-05-14T03:26:01.033Z,12.90
2023-05-14T03:29:29.178Z,12.87
2023-05-14T03:32:57.342Z,12.82
2023-05-14T03:36:12.951Z,12.79
2023-05-14T03:39:40.771Z,12.74
2023-05-14T03:43:08.748Z,12.70
2023-05-14T03:46:18.338Z,12.71
2023-05-14T03:49:47.111Z,12.74
2023-05-14T03:53:10.636Z,12.75
2023-05-14T03:56:38.621Z,12.77
2023-05-14T04:00:07.753Z,12.79
2023-05-14T04:03:35.946Z,12.79
2023-05-14T04:07:03.638Z,12.80
2023-05-14T04:10:31.981Z,12.79
2023-05-14T04:14:00.197Z,12.79
2023-05-14T04:17:28.453Z,12.80
2023-05-14T04:20:56.582Z,12.82
2023-05-14T04:23:48.874Z,12.84
2023-05-14T04:27:16.853Z,12.85
2023-05-14T04:30:45.025Z,12.87
2023-05-14T04:33:53.975Z,12.90
2023-05-14T04:37:21.885Z,12.86
2023-05-14T04:40:30.955Z,12.85
2023-05-14T04:43:39.212Z,12.92
2023-05-14T04:47:07.302Z,12.99
2023-05-14T04:50:30.972Z,13.06
2023-05-14T04:53:59.072Z,13.10
2023-05-14T04:57:27.023Z,13.15
2023-05-14T05:00:55.549Z,13.17
2023-05-14T05:04:23.500Z,13.20
2023-05-14T05:07:31.535Z,13.20
2023-05-14T05:11:00.154Z,13.20
2023-05-14T05:14:28.408Z,13.19
2023-05-14T05:17:56.639Z,13.20
2023-05-14T05:21:24.832Z,13.27
2023-05-14T05:24:52.894Z,13.33
2023-05-14T05:28:02.750Z,13.41
2023-05-14T05:31:10.948Z,13.47
2023-05-14T05:34:38.787Z,13.47
2023-05-14T05:38:06.855Z,13.52
2023-05-14T05:41:34.733Z,13.58
2023-05-14T05:45:02.844Z,13.61
2023-05-14T05:48:31.303Z,13.61
2023-05-14T05:52:07.789Z,13.62
2023-05-14T05:55:35.966Z,13.60
2023-05-14T05:59:03.924Z,13.60
2023-05-14T06:02:14.055Z,13.58
2023-05-14T06:05:42.493Z,13.52
2023-05-14T06:09:10.524Z,13.47
2023-05-14T06:12:19.361Z,13.43
2023-05-14T06:15:47.402Z,13.36
2023-05-14T06:19:15.907Z,13.32
2023-05-14T06:22:43.696Z,13.32
2023-05-14T06:26:08.128Z,13.29
2023-05-14T06:29:18.249Z,13.30
2023-05-14T06:32:46.226Z,13.30
2023-05-14T06:36:01.741Z,13.36
2023-05-14T06:39:29.736Z,13.43
2023-05-14T06:42:58.348Z,13.47
2023-05-14T06:46:08.209Z,13.44
2023-05-14T06:49:36.280Z,13.44
2023-05-14T06:53:05.470Z,13.42
2023-05-14T06:56:33.812Z,13.43
2023-05-14T07:00:03.466Z,13.46
2023-05-14T07:03:29.787Z,13.46
2023-05-14T07:06:57.891Z,13.43
2023-05-14T07:10:26.134Z,13.39
2023-05-14T07:13:34.625Z,13.35
2023-05-14T07:17:02.990Z,13.31
2023-05-14T07:20:31.174Z,13.22
2023-05-14T07:23:59.278Z,13.15
2023-05-14T07:27:27.036Z,13.13
2023-05-14T07:30:54.779Z,13.16
2023-05-14T07:34:23.004Z,13.22
2023-05-14T07:37:50.957Z,13.30
2023-05-14T07:41:00.348Z,13.31
2023-05-14T07:44:28.556Z,13.30
2023-05-14T07:47:56.642Z,13.33
2023-05-14T07:51:24.587Z,13.36
2023-05-14T07:54:52.571Z,13.40
2023-05-14T07:58:20.849Z,13.47
2023-05-14T08:01:48.717Z,13.53
2023-05-14T08:05:17.342Z,13.57
2023-05-14T08:08:45.452Z,13.64
2023-05-14T08:11:54.216Z,13.73
2023-05-14T08:15:22.145Z,13.84
2023-05-14T08:18:31.121Z,13.96
2023-05-14T08:21:20.410Z,14.05
2023-05-14T08:24:48.675Z,14.11
2023-05-14T08:28:16.740Z,14.13
2023-05-14T08:31:44.756Z,14.22
2023-05-14T08:35:12.870Z,14.32
2023-05-14T08:38:40.919Z,14.40
2023-05-14T08:41:50.909Z,14.48
2023-05-14T08:45:19.061Z,14.58
2023-05-14T08:48:07.085Z,14.61
2023-05-14T08:50:54.971Z,14.68
2023-05-14T08:54:20.975Z,14.73
2023-05-14T08:57:49.118Z,14.75
2023-05-14T09:01:17.250Z,14.78
2023-05-14T09:04:45.646Z,14.84
2023-05-14T09:07:34.509Z,14.91
2023-05-14T09:10:42.679Z,14.99
2023-05-14T09:13:32.355Z,15.08
2023-05-14T09:17:00.433Z,15.21
2023-05-14T09:20:28.989Z,15.35
2023-05-14T09:23:56.753Z,15.37
2023-05-14T09:27:24.588Z,15.40
2023-05-14T09:30:32.655Z,15.44
2023-05-14T09:33:02.588Z,15.43
2023-05-14T09:36:30.711Z,15.46
2023-05-14T09:39:58.582Z,15.46
2023-05-14T09:43:26.567Z,15.49
2023-05-14T09:46:54.682Z,15.44
2023-05-14T09:49:52.991Z,15.41
2023-05-14T09:53:01.902Z,15.40
2023-05-14T09:56:29.859Z,15.37
2023-05-14T09:59:18.374Z,15.34
2023-05-14T10:02:34.068Z,15.32
2023-05-14T10:06:02.094Z,15.32
2023-05-14T10:09:30.006Z,15.46
2023-05-14T10:12:58.118Z,15.63
2023-05-14T10:15:46.534Z,15.81
2023-05-14T10:18:35.320Z,15.94
2023-05-14T10:21:32.785Z,16.05
2023-05-14T10:24:48.730Z,16.12
2023-05-14T10:28:16.821Z,16.17
2023-05-14T10:31:45.048Z,16.16
2023-05-14T10:34:33.780Z,16.14
2023-05-14T10:37:42.697Z,16.17
2023-05-14T10:41:11.148Z,16.24
2023-05-14T10:44:39.092Z,16.34
2023-05-14T10:48:07.273Z,16.50
2023-05-14T10:51:35.359Z,16.61
2023-05-14T10:55:03.571Z,16.78
2023-05-14T10:58:31.375Z,17.03
2023-05-14T11:01:59.595Z,17.23
2023-05-14T11:04:50.156Z,17.32
2023-05-14T11:08:06.127Z,17.48
2023-05-14T11:10:54.427Z,17.38
2023-05-14T11:13:23.503Z,17.43
2023-05-14T11:16:31.345Z,17.42
2023-05-14T11:19:39.531Z,17.37
2023-05-14T11:22:51.832Z,17.31
2023-05-14T11:25:40.366Z,17.22
2023-05-14T11:29:08.248Z,17.13
2023-05-14T11:32:36.172Z,17.12
2023-05-14T11:35:48.421Z,17.25
2023-05-14T11:39:16.690Z,17.36
2023-05-14T11:42:44.767Z,17.51
2023-05-14T11:45:53.623Z,17.57
2023-05-14T11:49:21.869Z,17.58
2023-05-14T11:52:29.966Z,17.60
2023-05-14T11:55:38.853Z,17.67
2023-05-14T11:59:06.999Z,17.86
2023-05-14T12:02:16.646Z,17.99
2023-05-14T12:05:24.536Z,18.14
2023-05-14T12:08:36.310Z,18.25
2023-05-14T12:12:04.512Z,18.29
2023-05-14T12:15:12.627Z,18.35
2023-05-14T12:18:40.620Z,18.49
2023-05-14T12:21:56.884Z,18.59
2023-05-14T12:25:25.148Z,18.62
2023-05-14T12:28:49.165Z,18.52
2023-05-14T12:31:45.480Z,18.42
2023-05-14T12:35:13.485Z,18.35
2023-05-14T12:38:41.406Z,18.38
2023-05-14T12:42:09.405Z,18.32
2023-05-14T12:45:33.934Z,18.22
2023-05-14T12:48:51.178Z,18.13
2023-05-14T12:52:22.327Z,18.05
2023-05-14T12:55:33.480Z,18.03
2023-05-14T12:59:01.772Z,17.95
2023-05-14T13:02:10.490Z,18.10
2023-05-14T13:05:38.352Z,18.36
2023-05-14T13:08:27.737Z,18.48
2023-05-14T13:11:51.296Z,18.65
2023-05-14T13:15:19.323Z,18.60
2023-05-14T13:18:48.480Z,18.60
2023-05-14T13:22:16.163Z,18.67
2023-05-14T13:25:24.761Z,18.78
2023-05-14T13:28:52.432Z,18.80
2023-05-14T13:31:41.644Z,18.78
2023-05-14T13:35:09.728Z,18.78
2023-05-14T13:38:18.737Z,18.83
2023-05-14T13:41:33.819Z,18.82
2023-05-14T13:45:01.952Z,18.83
2023-05-14T13:48:10.317Z,18.88
2023-05-14T13:50:39.111Z,18.85
2023-05-14T13:54:07.085Z,18.88
2023-05-14T13:57:30.479Z,18.93
2023-05-14T14:00:58.500Z,18.99
2023-05-14T14:04:06.758Z,19.18
2023-05-14T14:06:47.636Z,19.27
2023-05-14T14:09:41.589Z,19.35
2023-05-14T14:12:50.415Z,19.28
2023-05-14T14:15:19.661Z,19.21
2023-05-14T14:18:47.646Z,19.13
2023-05-14T14:21:56.659Z,19.15
2023-05-14T14:25:24.834Z,19.16
2023-05-14T14:28:15.681Z,19.13
2023-05-14T14:31:33.410Z,19.09
2023-05-14T14:34:13.354Z,19.05
2023-05-14T14:37:23.170Z,19.10
2023-05-14T14:40:49.890Z,19.16
2023-05-14T14:43:18.397Z,19.14
2023-05-14T14:46:08.051Z,19.09
2023-05-14T14:49:16.128Z,19.08
2023-05-14T14:52:31.343Z,19.07
2023-05-14T14:55:22.585Z,19.07
2023-05-14T14:57:52.557Z,19.10
2023-05-14T15:00:41.755Z,19.11
2023-05-14T15:04:10.035Z,19.14
2023-05-14T15:07:38.127Z,19.14
2023-05-14T15:10:53.902Z,19.08
2023-05-14T15:13:42.857Z,19.03
2023-05-14T15:16:52.076Z,18.99
2023-05-14T15:19:59.997Z,18.99
2023-05-14T15:22:49.102Z,18.97
2023-05-14T15:26:00.934Z,18.95
2023-05-14T15:29:08.955Z,18.94
2023-05-14T15:32:08.570Z,18.91
2023-05-14T15:35:16.507Z,18.86
2023-05-14T15:38:05.386Z,18.79
2023-05-14T15:40:53.700Z,18.76
2023-05-14T15:44:17.088Z,18.71
2023-05-14T15:47:45.536Z,18.71
2023-05-14T15:51:01.811Z,18.71
2023-05-14T15:54:29.980Z,18.72
2023-05-14T15:57:59.294Z,18.73
2023-05-14T16:01:07.504Z,18.72
2023-05-14T16:04:31.472Z,18.72
2023-05-14T16:07:59.772Z,18.81
2023-05-14T16:10:48.964Z,18.92
2023-05-14T16:13:39.319Z,19.00
2023-05-14T16:16:08.999Z,19.02
2023-05-14T16:19:37.185Z,19.00
2023-05-14T16:23:05.105Z,18.93
2023-05-14T16:26:29.162Z,18.86
2023-05-14T16:29:37.651Z,18.82
2023-05-14T16:33:05.494Z,18.75
2023-05-14T16:36:14.292Z,18.63
2023-05-14T16:39:07.847Z,18.50
2023-05-14T16:42:31.480Z,18.39
2023-05-14T16:45:59.794Z,18.30
2023-05-14T16:49:27.642Z,18.22
2023-05-14T16:52:55.849Z,18.14
2023-05-14T16:55:43.823Z,18.11
2023-05-14T16:58:53.107Z,18.05
2023-05-14T17:02:21.333Z,17.99
2023-05-14T17:05:49.199Z,17.97
2023-05-14T17:09:13.754Z,17.90
2023-05-14T17:12:41.761Z,17.87
2023-05-14T17:16:07.452Z,17.86
2023-05-14T17:19:35.496Z,17.85
2023-05-14T17:23:03.980Z,17.83
2023-05-14T17:26:32.659Z,17.79
2023-05-14T17:29:21.674Z,17.77
2023-05-14T17:32:51.142Z,17.72
2023-05-14T17:36:19.427Z,17.69
2023-05-14T17:39:07.495Z,17.66
2023-05-14T17:41:56.324Z,17.62
2023-05-14T17:45:05.706Z,17.57
2023-05-14T17:48:33.927Z,17.53
2023-05-14T17:52:02.276Z,17.50
2023-05-14T17:55:30.127Z,17.43
2023-05-14T17:58:45.833Z,17.35
2023-05-14T18:01:57.548Z,17.27
2023-05-14T18:05:25.948Z,17.23
2023-05-14T18:08:33.764Z,17.20
2023-05-14T18:12:01.617Z,17.15
2023-05-14T18:15:29.923Z,17.10
2023-05-14T18:18:58.285Z,17.08
2023-05-14T18:22:26.487Z,17.05
2023-05-14T18:25:15.921Z,17.03
2023-05-14T18:28:44.155Z,16.98
2023-05-14T18:31:32.774Z,16.96
2023-05-14T18:35:00.716Z,16.96
2023-05-14T18:37:49.675Z,16.96
2023-05-14T18:40:58.390Z,16.96
2023-05-14T18:44:07.594Z,16.93
2023-05-14T18:47:35.902Z,16.91
2023-05-14T18:51:04.116Z,16.87
2023-05-14T18:54:32.239Z,16.82
2023-05-14T18:58:00.192Z,16.77
2023-05-14T19:01:28.276Z,16.73
2023-05-14T19:04:58.563Z,16.66
2023-05-14T19:08:26.571Z,16.63
2023-05-14T19:11:54.865Z,16.60
2023-05-14T19:15:03.934Z,16.56
2023-05-14T19:18:32.116Z,16.52
2023-05-14T19:21:40.612Z,16.47
2023-05-14T19:27:58.504Z,16.37
2023-05-14T19:30:47.327Z,16.35
2023-05-14T19:34:15.181Z,16.33
2023-05-14T19:37:04.344Z,16.29
2023-05-14T19:39:52.691Z,16.26
2023-05-14T19:43:20.871Z,16.23
2023-05-14T19:46:49.074Z,16.21
2023-05-14T19:49:18.008Z,16.19
2023-05-14T19:52:46.329Z,16.13
2023-05-14T19:56:14.779Z,16.10
2023-05-14T19:59:43.507Z,16.09
2023-05-14T20:02:59.454Z,16.06
2023-05-14T20:06:27.289Z,16.05
2023-05-14T20:09:55.468Z,16.03
2023-05-14T20:13:25.162Z,16.02
2023-05-14T20:16:17.186Z,16.01
2023-05-14T20:19:44.941Z,15.99
2023-05-14T20:23:13.208Z,16.00
2023-05-14T20:26:41.142Z,16.01
2023-05-14T20:30:09.157Z,16.01
2023-05-14T20:33:37.097Z,16.03
2023-05-14T20:37:05.291Z,16.04
2023-05-14T20:40:33.224Z,16.07
2023-05-14T20:44:01.202Z,16.08
2023-05-14T20:47:29.683Z,16.10
2023-05-14T20:50:58.690Z,16.12
2023-05-14T20:54:07.325Z,16.12
2023-05-14T20:57:35.240Z,16.13
2023-05-14T21:01:03.712Z,16.13
2023-05-14T21:04:12.900Z,16.12
2023-05-14T21:07:09.174Z,16.13
2023-05-14T21:10:37.592Z,16.12
2023-05-14T21:14:01.180Z,16.13
2023-05-14T21:17:29.616Z,16.13
2023-05-14T21:20:57.900Z,16.12
2023-05-14T21:24:06.480Z,16.12
2023-05-14T21:27:34.652Z,16.12
2023-05-14T21:31:02.546Z,16.12
2023-05-14T21:34:11.526Z,16.10
2023-05-14T21:37:19.744Z,16.09
2023-05-14T21:40:28.000Z,16.09
2023-05-14T21:43:56.546Z,16.08
2023-05-14T21:47:04.800Z,16.06
2023-05-14T21:50:34.088Z,16.07
2023-05-14T21:53:44.316Z,16.08
2023-05-14T21:56:53.003Z,16.07
2023-05-14T21:59:22.201Z,16.05
2023-05-14T22:02:50.278Z,16.05
2023-05-14T22:05:58.260Z,16.06
2023-05-14T22:08:31.639Z,16.05
2023-05-14T22:12:00.031Z,16.03
2023-05-14T22:14:50.002Z,16.04
2023-05-14T22:18:18.180Z,16.04
2023-05-14T22:21:30.218Z,16.03
2023-05-14T22:24:58.112Z,16.02
2023-05-14T22:28:26.863Z,16.03
2023-05-14T22:31:54.775Z,16.03
2023-05-14T22:35:22.775Z,16.00
2023-05-14T22:38:50.713Z,15.99
2023-05-14T22:42:19.018Z,15.98
2023-05-14T22:45:47.171Z,15.96
2023-05-14T22:48:55.410Z,15.93
2023-05-14T22:52:23.302Z,15.92
2023-05-14T22:55:51.305Z,15.90
2023-05-14T22:59:20.584Z,15.91
2023-05-14T23:02:47.466Z,15.90
2023-05-14T23:05:55.315Z,15.89
2023-05-14T23:09:23.390Z,15.89
2023-05-14T23:12:35.494Z,15.90
2023-05-14T23:16:03.573Z,15.90
2023-05-14T23:19:31.745Z,15.92
2023-05-14T23:22:20.302Z,15.94
2023-05-14T23:25:48.254Z,15.94
2023-05-14T23:29:16.643Z,15.94
2023-05-14T23:32:44.907Z,15.94
2023-05-14T23:36:12.900Z,15.94
2023-05-14T23:39:40.705Z,15.96
2023-05-14T23:43:08.609Z,15.97
2023-05-14T23:46:18.815Z,15.98
2023-05-14T23:49:47.271Z,15.98
2023-05-14T23:53:03.525Z,15.98
2023-05-14T23:56:12.337Z,15.98
2023-05-14T23:59:20.664Z,16.00
